EIKY/KIR METAR and TAF weather

Enter ICAO airport designator
Station Type Date Time Source
EIKY METAR 2020/04/06 18:30 UTC NOAA

EIKY 061830Z 27006KT 240V310 CAVOK 10/04 Q1022


Station Type Date Time Source
EIKY Decoded METAR 2020/04/06 18:30 UTC NOAA

Station name not available
Apr 06, 2020 - 02:30 PM EDT / 2020.04.06 1830 UTC
Wind: from the W (270 degrees) at 7 MPH (6 KT) (direction variable):0
Visibility: greater than 7 mile(s):0
Temperature: 50 F (10 C)
Dew Point: 39 F (4 C)
Relative Humidity: 66%
Pressure (altimeter): 30.18 in. Hg (1022 hPa)
ob: EIKY 061830Z 27006KT 240V310 CAVOK 10/04 Q1022
cycle: 18

Station Type Date Time Source
EIKY TAF UTC NOAA

Error!

Example: see airport list